Sign-in with your pilot id or email, or register

ICAO: LIRA Name / Country: Roma Ciampino Airport / Italy
Latitude: 41.7994 Longitude: 12.5949
Total Arrivals:
Strict Standards: Non-static method AirportData::getarrflights() should not be called statically, assuming $this from incompatible context in /var/www/customers/vh-7192/web/home/phpvms/core/templates/airport_info.tpl on line 18
1
Total Departures:
Strict Standards: Non-static method AirportData::getdeptflights() should not be called statically, assuming $this from incompatible context in /var/www/customers/vh-7192/web/home/phpvms/core/templates/airport_info.tpl on line 21
1
Latest Arrival: MTA11P (CHART (LHBP-LIRA) Tibor Berces Latest Departure: MTA11P (CHART (LIRA-LHBP) Tibor Berces
Metar: LIRA 270920Z 06006KT 7000 RA SCT020 BKN030 12/10 Q1004
More info

Charts for LIRA


NOTAM


Warning: file_get_contents(http://api.vateud.net/notams/LIRA.json): failed to open stream: Redirection limit reached, aborting in /var/www/customers/vh-7192/web/home/phpvms/core/common/NOTAMSData.class.php on line 18

Warning: Invalid argument supplied for foreach() in /var/www/customers/vh-7192/web/home/phpvms/core/common/NOTAMSData.class.php on line 22

Roma Ciampino Airport